sensor_id;sensor_type;location;lat;lon;timestamp;temperature;humidity
843;DHT22;407;48.884;9.126;2023-07-08T00:01:55;21.80;99.90
843;DHT22;407;48.884;9.126;2023-07-08T00:04:20;21.50;99.90
843;DHT22;407;48.884;9.126;2023-07-08T00:06:47;21.30;99.90
843;DHT22;407;48.884;9.126;2023-07-08T00:09:12;21.10;99.90
843;DHT22;407;48.884;9.126;2023-07-08T00:11:38;21.00;99.90
843;DHT22;407;48.884;9.126;2023-07-08T00:14:04;20.90;99.90
843;DHT22;407;48.884;9.126;2023-07-08T00:16:29;20.90;99.90
843;DHT22;407;48.884;9.126;2023-07-08T00:18:55;20.80;99.90
843;DHT22;407;48.884;9.126;2023-07-08T00:21:21;20.90;99.90
843;DHT22;407;48.884;9.126;2023-07-08T00:23:50;20.80;99.90
843;DHT22;407;48.884;9.126;2023-07-08T00:26:24;20.70;99.90
843;DHT22;407;48.884;9.126;2023-07-08T00:28:51;20.70;99.90
843;DHT22;407;48.884;9.126;2023-07-08T00:31:16;20.80;99.90
843;DHT22;407;48.884;9.126;2023-07-08T00:33:42;20.60;99.90
843;DHT22;407;48.884;9.126;2023-07-08T00:36:12;20.60;99.90
843;DHT22;407;48.884;9.126;2023-07-08T00:38:39;20.50;99.90
843;DHT22;407;48.884;9.126;2023-07-08T00:41:22;20.40;99.90
843;DHT22;407;48.884;9.126;2023-07-08T00:43:51;20.40;99.90
843;DHT22;407;48.884;9.126;2023-07-08T00:51:37;20.40;99.90
843;DHT22;407;48.884;9.126;2023-07-08T00:54:13;20.20;99.90
843;DHT22;407;48.884;9.126;2023-07-08T00:57:01;20.10;99.90
843;DHT22;407;48.884;9.126;2023-07-08T00:59:37;20.00;99.90
843;DHT22;407;48.884;9.126;2023-07-08T01:02:11;19.90;99.90
843;DHT22;407;48.884;9.126;2023-07-08T01:04:58;19.90;99.90
843;DHT22;407;48.884;9.126;2023-07-08T01:07:29;19.70;99.90
843;DHT22;407;48.884;9.126;2023-07-08T01:10:02;19.70;99.90
843;DHT22;407;48.884;9.126;2023-07-08T01:12:38;19.80;99.90
843;DHT22;407;48.884;9.126;2023-07-08T01:15:06;19.80;99.90
843;DHT22;407;48.884;9.126;2023-07-08T01:17:33;19.70;99.90
843;DHT22;407;48.884;9.126;2023-07-08T01:20:00;19.70;99.90
843;DHT22;407;48.884;9.126;2023-07-08T01:22:31;19.70;99.90
843;DHT22;407;48.884;9.126;2023-07-08T01:24:58;19.60;99.90
843;DHT22;407;48.884;9.126;2023-07-08T01:27:30;19.60;99.90
843;DHT22;407;48.884;9.126;2023-07-08T01:29:57;19.60;99.90
843;DHT22;407;48.884;9.126;2023-07-08T01:32:23;19.60;99.90
843;DHT22;407;48.884;9.126;2023-07-08T01:34:49;19.60;99.90
843;DHT22;407;48.884;9.126;2023-07-08T01:37:41;19.50;99.90
843;DHT22;407;48.884;9.126;2023-07-08T01:42:45;19.50;99.90
843;DHT22;407;48.884;9.126;2023-07-08T01:45:15;19.40;99.90
843;DHT22;407;48.884;9.126;2023-07-08T01:47:43;19.40;99.90
843;DHT22;407;48.884;9.126;2023-07-08T01:50:11;19.40;99.90
843;DHT22;407;48.884;9.126;2023-07-08T01:52:37;19.50;99.90
843;DHT22;407;48.884;9.126;2023-07-08T01:55:03;19.50;99.90
843;DHT22;407;48.884;9.126;2023-07-08T01:57:29;19.60;99.90
843;DHT22;407;48.884;9.126;2023-07-08T01:59:55;19.50;99.90
843;DHT22;407;48.884;9.126;2023-07-08T02:02:20;19.30;99.90
843;DHT22;407;48.884;9.126;2023-07-08T02:04:47;19.20;99.90
843;DHT22;407;48.884;9.126;2023-07-08T02:07:12;19.20;99.90
843;DHT22;407;48.884;9.126;2023-07-08T02:09:38;19.20;99.90
843;DHT22;407;48.884;9.126;2023-07-08T02:12:04;19.30;99.90
843;DHT22;407;48.884;9.126;2023-07-08T02:14:30;19.30;99.90
843;DHT22;407;48.884;9.126;2023-07-08T02:16:55;19.30;99.90
843;DHT22;407;48.884;9.126;2023-07-08T02:19:20;19.30;99.90
843;DHT22;407;48.884;9.126;2023-07-08T02:21:47;19.30;99.90
843;DHT22;407;48.884;9.126;2023-07-08T02:24:13;19.30;99.90
843;DHT22;407;48.884;9.126;2023-07-08T02:26:38;19.30;99.90
843;DHT22;407;48.884;9.126;2023-07-08T02:29:04;19.30;99.90
843;DHT22;407;48.884;9.126;2023-07-08T02:31:29;19.30;99.90
843;DHT22;407;48.884;9.126;2023-07-08T02:33:55;19.30;99.90
843;DHT22;407;48.884;9.126;2023-07-08T02:36:21;19.20;99.90
843;DHT22;407;48.884;9.126;2023-07-08T02:38:46;19.30;99.90
843;DHT22;407;48.884;9.126;2023-07-08T02:41:12;19.50;99.90
843;DHT22;407;48.884;9.126;2023-07-08T02:43:38;19.60;99.90
843;DHT22;407;48.884;9.126;2023-07-08T02:46:04;19.80;99.90
843;DHT22;407;48.884;9.126;2023-07-08T02:48:29;20.00;99.90
843;DHT22;407;48.884;9.126;2023-07-08T02:51:05;20.00;99.90
843;DHT22;407;48.884;9.126;2023-07-08T02:53:31;20.10;99.90
843;DHT22;407;48.884;9.126;2023-07-08T02:55:57;20.10;99.90
843;DHT22;407;48.884;9.126;2023-07-08T02:58:23;20.10;99.90
843;DHT22;407;48.884;9.126;2023-07-08T03:00:53;20.10;99.90
843;DHT22;407;48.884;9.126;2023-07-08T03:03:18;20.00;99.90
843;DHT22;407;48.884;9.126;2023-07-08T03:05:44;19.80;99.90
843;DHT22;407;48.884;9.126;2023-07-08T03:08:18;19.80;99.90
843;DHT22;407;48.884;9.126;2023-07-08T03:10:47;19.70;99.90
843;DHT22;407;48.884;9.126;2023-07-08T03:13:13;19.60;99.90
843;DHT22;407;48.884;9.126;2023-07-08T03:15:38;19.60;99.90
843;DHT22;407;48.884;9.126;2023-07-08T03:18:04;19.70;99.90
843;DHT22;407;48.884;9.126;2023-07-08T03:20:30;19.60;99.90
843;DHT22;407;48.884;9.126;2023-07-08T03:22:58;19.80;99.90
843;DHT22;407;48.884;9.126;2023-07-08T03:25:24;19.80;99.90
843;DHT22;407;48.884;9.126;2023-07-08T03:27:50;19.80;99.90
843;DHT22;407;48.884;9.126;2023-07-08T03:30:15;19.80;99.90
843;DHT22;407;48.884;9.126;2023-07-08T03:32:41;19.80;99.90
843;DHT22;407;48.884;9.126;2023-07-08T03:35:07;19.80;99.90
843;DHT22;407;48.884;9.126;2023-07-08T03:37:33;19.80;99.90
843;DHT22;407;48.884;9.126;2023-07-08T03:39:59;19.70;99.90
843;DHT22;407;48.884;9.126;2023-07-08T03:42:24;19.60;99.90
843;DHT22;407;48.884;9.126;2023-07-08T03:44:50;19.70;99.90
843;DHT22;407;48.884;9.126;2023-07-08T03:47:15;19.50;99.90
843;DHT22;407;48.884;9.126;2023-07-08T03:49:41;19.30;99.90
843;DHT22;407;48.884;9.126;2023-07-08T03:52:12;19.30;99.90
843;DHT22;407;48.884;9.126;2023-07-08T03:54:41;19.30;99.90
843;DHT22;407;48.884;9.126;2023-07-08T03:57:06;19.20;99.90
843;DHT22;407;48.884;9.126;2023-07-08T03:59:32;19.20;99.90
843;DHT22;407;48.884;9.126;2023-07-08T04:01:57;19.20;99.90
843;DHT22;407;48.884;9.126;2023-07-08T04:04:23;19.20;99.90
843;DHT22;407;48.884;9.126;2023-07-08T04:06:49;19.30;99.90
843;DHT22;407;48.884;9.126;2023-07-08T04:09:15;19.40;99.90
843;DHT22;407;48.884;9.126;2023-07-08T04:11:41;19.50;99.90
843;DHT22;407;48.884;9.126;2023-07-08T04:14:09;19.60;99.90
843;DHT22;407;48.884;9.126;2023-07-08T04:16:45;19.80;99.90
843;DHT22;407;48.884;9.126;2023-07-08T04:19:13;19.80;99.90
843;DHT22;407;48.884;9.126;2023-07-08T04:21:41;19.80;99.90
843;DHT22;407;48.884;9.126;2023-07-08T04:24:12;19.90;99.90
843;DHT22;407;48.884;9.126;2023-07-08T04:26:39;20.00;99.90
843;DHT22;407;48.884;9.126;2023-07-08T04:29:09;20.20;99.90
843;DHT22;407;48.884;9.126;2023-07-08T04:31:35;20.30;99.90
843;DHT22;407;48.884;9.126;2023-07-08T04:34:02;20.30;99.90
843;DHT22;407;48.884;9.126;2023-07-08T04:36:27;20.40;99.90
843;DHT22;407;48.884;9.126;2023-07-08T04:38:53;20.60;99.90
843;DHT22;407;48.884;9.126;2023-07-08T04:41:18;20.70;99.90
843;DHT22;407;48.884;9.126;2023-07-08T04:43:44;20.80;99.90
843;DHT22;407;48.884;9.126;2023-07-08T04:46:32;20.90;99.90
843;DHT22;407;48.884;9.126;2023-07-08T04:49:03;21.10;99.90
843;DHT22;407;48.884;9.126;2023-07-08T04:51:30;21.20;99.90
843;DHT22;407;48.884;9.126;2023-07-08T04:53:55;21.40;99.90
843;DHT22;407;48.884;9.126;2023-07-08T04:56:21;21.60;99.90
843;DHT22;407;48.884;9.126;2023-07-08T04:58:48;21.70;99.90
843;DHT22;407;48.884;9.126;2023-07-08T05:01:14;21.90;99.90
843;DHT22;407;48.884;9.126;2023-07-08T05:03:39;22.00;99.90
843;DHT22;407;48.884;9.126;2023-07-08T05:06:05;22.00;99.90
843;DHT22;407;48.884;9.126;2023-07-08T05:08:30;22.00;99.90
843;DHT22;407;48.884;9.126;2023-07-08T05:10:56;22.10;99.90
843;DHT22;407;48.884;9.126;2023-07-08T05:13:23;22.10;99.90
843;DHT22;407;48.884;9.126;2023-07-08T05:15:48;22.00;99.90
843;DHT22;407;48.884;9.126;2023-07-08T05:18:14;21.80;99.90
843;DHT22;407;48.884;9.126;2023-07-08T05:20:39;22.00;99.90
843;DHT22;407;48.884;9.126;2023-07-08T05:23:05;21.80;99.90
843;DHT22;407;48.884;9.126;2023-07-08T05:25:32;21.90;99.90
843;DHT22;407;48.884;9.126;2023-07-08T05:27:58;22.20;99.90
843;DHT22;407;48.884;9.126;2023-07-08T05:30:24;22.40;99.90
843;DHT22;407;48.884;9.126;2023-07-08T05:32:49;22.70;99.90
843;DHT22;407;48.884;9.126;2023-07-08T05:35:15;22.80;99.90
843;DHT22;407;48.884;9.126;2023-07-08T05:37:41;23.10;99.90
843;DHT22;407;48.884;9.126;2023-07-08T05:40:08;24.10;99.90
843;DHT22;407;48.884;9.126;2023-07-08T05:42:33;25.60;99.90
843;DHT22;407;48.884;9.126;2023-07-08T05:44:59;26.60;99.90
843;DHT22;407;48.884;9.126;2023-07-08T05:47:24;26.70;99.90
843;DHT22;407;48.884;9.126;2023-07-08T05:49:51;26.50;99.90
843;DHT22;407;48.884;9.126;2023-07-08T05:52:17;26.20;99.90
843;DHT22;407;48.884;9.126;2023-07-08T05:54:42;25.70;99.90
843;DHT22;407;48.884;9.126;2023-07-08T05:57:09;25.30;99.90
843;DHT22;407;48.884;9.126;2023-07-08T05:59:36;25.00;99.90
843;DHT22;407;48.884;9.126;2023-07-08T06:02:03;24.80;99.90
843;DHT22;407;48.884;9.126;2023-07-08T06:04:28;24.70;99.90
843;DHT22;407;48.884;9.126;2023-07-08T06:06:54;25.00;99.90
843;DHT22;407;48.884;9.126;2023-07-08T06:09:19;25.20;99.90
843;DHT22;407;48.884;9.126;2023-07-08T06:11:45;25.70;99.90
843;DHT22;407;48.884;9.126;2023-07-08T06:14:12;26.30;99.90
843;DHT22;407;48.884;9.126;2023-07-08T06:16:38;27.90;99.90
843;DHT22;407;48.884;9.126;2023-07-08T06:19:03;30.00;99.90
843;DHT22;407;48.884;9.126;2023-07-08T06:21:29;31.90;99.90
843;DHT22;407;48.884;9.126;2023-07-08T06:23:54;33.30;99.90
843;DHT22;407;48.884;9.126;2023-07-08T06:26:20;34.20;99.90
843;DHT22;407;48.884;9.126;2023-07-08T06:28:45;35.00;99.90
843;DHT22;407;48.884;9.126;2023-07-08T06:31:11;36.00;99.90
843;DHT22;407;48.884;9.126;2023-07-08T06:33:36;35.90;99.90
843;DHT22;407;48.884;9.126;2023-07-08T06:36:02;35.80;99.90
843;DHT22;407;48.884;9.126;2023-07-08T06:38:28;35.70;99.90
843;DHT22;407;48.884;9.126;2023-07-08T06:40:53;35.30;99.90
843;DHT22;407;48.884;9.126;2023-07-08T06:43:19;34.90;99.90
843;DHT22;407;48.884;9.126;2023-07-08T06:45:44;34.20;99.90
843;DHT22;407;48.884;9.126;2023-07-08T06:48:10;33.80;99.90
843;DHT22;407;48.884;9.126;2023-07-08T06:50:36;33.20;99.90
843;DHT22;407;48.884;9.126;2023-07-08T06:53:01;33.90;99.90
843;DHT22;407;48.884;9.126;2023-07-08T06:55:27;34.70;99.90
843;DHT22;407;48.884;9.126;2023-07-08T06:57:52;34.60;99.90
843;DHT22;407;48.884;9.126;2023-07-08T07:00:18;34.90;99.90
843;DHT22;407;48.884;9.126;2023-07-08T07:02:44;35.30;99.90
843;DHT22;407;48.884;9.126;2023-07-08T07:05:09;34.90;99.90
843;DHT22;407;48.884;9.126;2023-07-08T07:07:38;34.80;99.90
843;DHT22;407;48.884;9.126;2023-07-08T07:10:04;33.70;99.90
843;DHT22;407;48.884;9.126;2023-07-08T07:12:31;32.50;99.90
843;DHT22;407;48.884;9.126;2023-07-08T07:14:56;31.50;99.90
843;DHT22;407;48.884;9.126;2023-07-08T07:17:23;30.80;99.90
843;DHT22;407;48.884;9.126;2023-07-08T07:19:50;30.30;99.90
843;DHT22;407;48.884;9.126;2023-07-08T07:22:16;29.90;99.90
843;DHT22;407;48.884;9.126;2023-07-08T07:24:42;30.20;99.90
843;DHT22;407;48.884;9.126;2023-07-08T07:27:08;30.50;99.90
843;DHT22;407;48.884;9.126;2023-07-08T07:29:49;30.50;99.90
843;DHT22;407;48.884;9.126;2023-07-08T07:32:16;30.70;99.90
843;DHT22;407;48.884;9.126;2023-07-08T07:34:42;30.50;99.90
843;DHT22;407;48.884;9.126;2023-07-08T07:37:15;30.40;99.90
843;DHT22;407;48.884;9.126;2023-07-08T07:39:41;30.40;99.90
843;DHT22;407;48.884;9.126;2023-07-08T07:42:07;31.00;99.90
843;DHT22;407;48.884;9.126;2023-07-08T07:44:33;31.80;99.90
843;DHT22;407;48.884;9.126;2023-07-08T07:46:59;32.10;99.90
843;DHT22;407;48.884;9.126;2023-07-08T07:49:24;32.50;99.90
843;DHT22;407;48.884;9.126;2023-07-08T07:51:50;32.30;99.90
843;DHT22;407;48.884;9.126;2023-07-08T07:54:16;32.40;99.90
843;DHT22;407;48.884;9.126;2023-07-08T07:56:41;33.30;99.90
843;DHT22;407;48.884;9.126;2023-07-08T07:59:07;33.70;99.90
843;DHT22;407;48.884;9.126;2023-07-08T08:01:32;33.90;99.90
843;DHT22;407;48.884;9.126;2023-07-08T08:03:58;34.20;99.90
843;DHT22;407;48.884;9.126;2023-07-08T08:06:23;35.10;99.90
843;DHT22;407;48.884;9.126;2023-07-08T08:08:49;35.50;99.90
843;DHT22;407;48.884;9.126;2023-07-08T08:13:41;37.40;99.90
843;DHT22;407;48.884;9.126;2023-07-08T08:16:07;38.20;99.90
843;DHT22;407;48.884;9.126;2023-07-08T08:18:33;38.70;99.90
843;DHT22;407;48.884;9.126;2023-07-08T08:20:58;39.50;99.90
843;DHT22;407;48.884;9.126;2023-07-08T08:23:24;39.50;99.90
843;DHT22;407;48.884;9.126;2023-07-08T08:25:52;39.40;99.90
843;DHT22;407;48.884;9.126;2023-07-08T08:28:18;39.90;99.90
843;DHT22;407;48.884;9.126;2023-07-08T08:35:43;42.50;1.00
843;DHT22;407;48.884;9.126;2023-07-08T08:38:08;42.30;1.00
843;DHT22;407;48.884;9.126;2023-07-08T08:40:34;42.30;1.00
843;DHT22;407;48.884;9.126;2023-07-08T08:43:06;42.80;1.00
843;DHT22;407;48.884;9.126;2023-07-08T08:45:43;42.80;1.00
843;DHT22;407;48.884;9.126;2023-07-08T08:48:15;40.90;1.00
843;DHT22;407;48.884;9.126;2023-07-08T08:51:07;40.40;99.90
843;DHT22;407;48.884;9.126;2023-07-08T08:53:35;40.90;99.90
843;DHT22;407;48.884;9.126;2023-07-08T08:56:09;42.30;1.00
843;DHT22;407;48.884;9.126;2023-07-08T08:59:04;42.80;1.00
843;DHT22;407;48.884;9.126;2023-07-08T09:01:32;43.30;1.00
843;DHT22;407;48.884;9.126;2023-07-08T09:04:03;42.30;1.00
843;DHT22;407;48.884;9.126;2023-07-08T09:06:33;42.00;1.00
843;DHT22;407;48.884;9.126;2023-07-08T09:09:18;41.40;1.00
843;DHT22;407;48.884;9.126;2023-07-08T09:12:12;41.10;1.00
843;DHT22;407;48.884;9.126;2023-07-08T09:14:38;41.90;1.00
843;DHT22;407;48.884;9.126;2023-07-08T09:22:38;41.50;1.00
843;DHT22;407;48.884;9.126;2023-07-08T09:25:17;41.40;1.00
843;DHT22;407;48.884;9.126;2023-07-08T09:27:46;41.20;1.00
843;DHT22;407;48.884;9.126;2023-07-08T09:30:19;41.30;1.00
843;DHT22;407;48.884;9.126;2023-07-08T09:32:46;41.50;1.00
843;DHT22;407;48.884;9.126;2023-07-08T09:37:47;41.80;1.00
843;DHT22;407;48.884;9.126;2023-07-08T09:42:52;44.10;1.00
843;DHT22;407;48.884;9.126;2023-07-08T09:45:24;45.20;1.00
843;DHT22;407;48.884;9.126;2023-07-08T09:47:55;45.00;1.00
843;DHT22;407;48.884;9.126;2023-07-08T09:50:26;44.60;1.00
843;DHT22;407;48.884;9.126;2023-07-08T09:52:55;44.40;1.00
843;DHT22;407;48.884;9.126;2023-07-08T09:55:23;44.10;1.00
843;DHT22;407;48.884;9.126;2023-07-08T09:57:50;43.70;99.90
843;DHT22;407;48.884;9.126;2023-07-08T10:00:25;44.40;99.90
843;DHT22;407;48.884;9.126;2023-07-08T10:02:54;43.90;99.90
843;DHT22;407;48.884;9.126;2023-07-08T10:05:33;44.10;1.00
843;DHT22;407;48.884;9.126;2023-07-08T10:08:02;42.80;99.90
843;DHT22;407;48.884;9.126;2023-07-08T10:10:35;42.30;99.90
843;DHT22;407;48.884;9.126;2023-07-08T10:13:45;42.00;99.90
843;DHT22;407;48.884;9.126;2023-07-08T10:16:25;42.00;99.90
843;DHT22;407;48.884;9.126;2023-07-08T10:18:52;41.00;99.90
843;DHT22;407;48.884;9.126;2023-07-08T10:24:38;40.70;99.90
843;DHT22;407;48.884;9.126;2023-07-08T10:27:34;41.50;99.90
843;DHT22;407;48.884;9.126;2023-07-08T10:32:48;39.30;1.00
843;DHT22;407;48.884;9.126;2023-07-08T10:35:27;39.20;1.00
843;DHT22;407;48.884;9.126;2023-07-08T10:38:03;38.60;1.00
843;DHT22;407;48.884;9.126;2023-07-08T10:40:49;38.40;1.00
843;DHT22;407;48.884;9.126;2023-07-08T10:46:21;36.90;99.90
843;DHT22;407;48.884;9.126;2023-07-08T10:56:55;35.60;99.90
843;DHT22;407;48.884;9.126;2023-07-08T11:03:23;35.00;99.90
843;DHT22;407;48.884;9.126;2023-07-08T11:06:10;34.10;99.90
843;DHT22;407;48.884;9.126;2023-07-08T11:08:48;33.50;99.90
843;DHT22;407;48.884;9.126;2023-07-08T11:13:59;33.10;99.90
843;DHT22;407;48.884;9.126;2023-07-08T11:16:35;33.00;99.90
843;DHT22;407;48.884;9.126;2023-07-08T11:19:16;33.20;99.90
843;DHT22;407;48.884;9.126;2023-07-08T11:21:45;33.40;99.90
843;DHT22;407;48.884;9.126;2023-07-08T11:24:27;33.30;99.90
843;DHT22;407;48.884;9.126;2023-07-08T11:27:19;33.20;99.90
843;DHT22;407;48.884;9.126;2023-07-08T11:29:56;33.10;99.90
843;DHT22;407;48.884;9.126;2023-07-08T11:32:25;32.90;99.90
843;DHT22;407;48.884;9.126;2023-07-08T11:34:52;33.40;99.90
843;DHT22;407;48.884;9.126;2023-07-08T11:37:19;33.90;99.90
843;DHT22;407;48.884;9.126;2023-07-08T11:40:37;34.10;99.90
843;DHT22;407;48.884;9.126;2023-07-08T11:42:44;34.20;99.90
843;DHT22;407;48.884;9.126;2023-07-08T11:45:25;34.00;99.90
843;DHT22;407;48.884;9.126;2023-07-08T11:47:52;34.10;99.90
843;DHT22;407;48.884;9.126;2023-07-08T11:50:30;34.00;99.90
843;DHT22;407;48.884;9.126;2023-07-08T11:53:06;34.00;99.90
843;DHT22;407;48.884;9.126;2023-07-08T11:55:57;33.90;99.90
843;DHT22;407;48.884;9.126;2023-07-08T11:58:25;33.80;99.90
843;DHT22;407;48.884;9.126;2023-07-08T12:01:04;33.90;99.90
843;DHT22;407;48.884;9.126;2023-07-08T12:03:47;33.90;99.90
843;DHT22;407;48.884;9.126;2023-07-08T12:08:56;34.00;99.90
843;DHT22;407;48.884;9.126;2023-07-08T12:11:33;33.70;99.90
843;DHT22;407;48.884;9.126;2023-07-08T12:14:01;33.50;99.90
843;DHT22;407;48.884;9.126;2023-07-08T12:16:28;33.60;99.90
843;DHT22;407;48.884;9.126;2023-07-08T12:18:55;33.40;99.90
843;DHT22;407;48.884;9.126;2023-07-08T12:21:23;33.40;99.90
843;DHT22;407;48.884;9.126;2023-07-08T12:23:48;33.50;99.90
843;DHT22;407;48.884;9.126;2023-07-08T12:26:15;33.80;99.90
843;DHT22;407;48.884;9.126;2023-07-08T12:28:41;33.80;99.90
843;DHT22;407;48.884;9.126;2023-07-08T12:31:17;34.00;99.90
843;DHT22;407;48.884;9.126;2023-07-08T12:33:44;34.10;99.90
843;DHT22;407;48.884;9.126;2023-07-08T12:36:13;34.10;99.90
843;DHT22;407;48.884;9.126;2023-07-08T12:38:42;33.80;99.90
843;DHT22;407;48.884;9.126;2023-07-08T12:43:44;33.40;99.90
843;DHT22;407;48.884;9.126;2023-07-08T12:46:11;33.60;99.90
843;DHT22;407;48.884;9.126;2023-07-08T12:48:37;33.90;99.90
843;DHT22;407;48.884;9.126;2023-07-08T12:51:06;34.00;99.90
843;DHT22;407;48.884;9.126;2023-07-08T12:53:32;34.20;99.90
843;DHT22;407;48.884;9.126;2023-07-08T12:56:00;34.40;99.90
843;DHT22;407;48.884;9.126;2023-07-08T12:58:29;34.60;99.90
843;DHT22;407;48.884;9.126;2023-07-08T13:00:56;34.90;99.90
843;DHT22;407;48.884;9.126;2023-07-08T13:03:28;35.00;99.90
843;DHT22;407;48.884;9.126;2023-07-08T13:05:56;35.00;99.90
843;DHT22;407;48.884;9.126;2023-07-08T13:08:24;35.20;99.90
843;DHT22;407;48.884;9.126;2023-07-08T13:10:58;35.10;99.90
843;DHT22;407;48.884;9.126;2023-07-08T13:13:37;35.00;99.90
843;DHT22;407;48.884;9.126;2023-07-08T13:16:04;35.00;99.90
843;DHT22;407;48.884;9.126;2023-07-08T13:18:33;35.10;99.90
843;DHT22;407;48.884;9.126;2023-07-08T13:21:00;35.10;99.90
843;DHT22;407;48.884;9.126;2023-07-08T13:23:27;35.10;99.90
843;DHT22;407;48.884;9.126;2023-07-08T13:25:53;35.10;99.90
843;DHT22;407;48.884;9.126;2023-07-08T13:28:28;35.20;99.90
843;DHT22;407;48.884;9.126;2023-07-08T13:30:59;35.10;99.90
843;DHT22;407;48.884;9.126;2023-07-08T13:33:33;35.00;99.90
843;DHT22;407;48.884;9.126;2023-07-08T13:36:04;35.10;99.90
843;DHT22;407;48.884;9.126;2023-07-08T13:38:38;35.40;99.90
843;DHT22;407;48.884;9.126;2023-07-08T13:41:06;35.40;99.90
843;DHT22;407;48.884;9.126;2023-07-08T13:43:34;35.40;99.90
843;DHT22;407;48.884;9.126;2023-07-08T13:46:01;35.40;99.90
843;DHT22;407;48.884;9.126;2023-07-08T13:48:29;35.50;99.90
843;DHT22;407;48.884;9.126;2023-07-08T13:51:01;35.30;99.90
843;DHT22;407;48.884;9.126;2023-07-08T13:53:41;35.20;99.90
843;DHT22;407;48.884;9.126;2023-07-08T13:56:29;35.40;99.90
843;DHT22;407;48.884;9.126;2023-07-08T13:59:04;35.50;99.90
843;DHT22;407;48.884;9.126;2023-07-08T14:01:32;35.30;99.90
843;DHT22;407;48.884;9.126;2023-07-08T14:03:58;35.00;99.90
843;DHT22;407;48.884;9.126;2023-07-08T14:06:30;34.90;99.90
843;DHT22;407;48.884;9.126;2023-07-08T14:08:58;34.50;99.90
843;DHT22;407;48.884;9.126;2023-07-08T14:11:25;34.30;99.90
843;DHT22;407;48.884;9.126;2023-07-08T14:13:50;34.40;99.90
843;DHT22;407;48.884;9.126;2023-07-08T14:16:26;34.50;99.90
843;DHT22;407;48.884;9.126;2023-07-08T14:18:54;34.80;99.90
843;DHT22;407;48.884;9.126;2023-07-08T14:21:20;34.90;99.90
843;DHT22;407;48.884;9.126;2023-07-08T14:23:46;34.60;99.90
843;DHT22;407;48.884;9.126;2023-07-08T14:26:12;34.50;99.90
843;DHT22;407;48.884;9.126;2023-07-08T14:28:38;34.50;99.90
843;DHT22;407;48.884;9.126;2023-07-08T14:31:12;34.70;99.90
843;DHT22;407;48.884;9.126;2023-07-08T14:33:40;34.90;99.90
843;DHT22;407;48.884;9.126;2023-07-08T14:36:12;35.00;99.90
843;DHT22;407;48.884;9.126;2023-07-08T14:38:38;35.00;99.90
843;DHT22;407;48.884;9.126;2023-07-08T14:41:04;35.00;99.90
843;DHT22;407;48.884;9.126;2023-07-08T14:43:32;35.20;99.90
843;DHT22;407;48.884;9.126;2023-07-08T14:46:01;35.20;99.90
843;DHT22;407;48.884;9.126;2023-07-08T14:48:29;35.20;99.90
843;DHT22;407;48.884;9.126;2023-07-08T14:50:55;35.00;99.90
843;DHT22;407;48.884;9.126;2023-07-08T14:53:21;34.50;99.90
843;DHT22;407;48.884;9.126;2023-07-08T14:55:48;34.80;99.90
843;DHT22;407;48.884;9.126;2023-07-08T14:58:29;35.10;99.90
843;DHT22;407;48.884;9.126;2023-07-08T15:00:57;35.30;99.90
843;DHT22;407;48.884;9.126;2023-07-08T15:03:26;35.30;99.90
843;DHT22;407;48.884;9.126;2023-07-08T15:05:52;35.20;99.90
843;DHT22;407;48.884;9.126;2023-07-08T15:08:18;35.20;99.90
843;DHT22;407;48.884;9.126;2023-07-08T15:10:48;35.10;99.90
843;DHT22;407;48.884;9.126;2023-07-08T15:13:15;35.20;99.90
843;DHT22;407;48.884;9.126;2023-07-08T15:15:42;35.40;99.90
843;DHT22;407;48.884;9.126;2023-07-08T15:18:16;35.40;99.90
843;DHT22;407;48.884;9.126;2023-07-08T15:20:42;35.00;99.90
843;DHT22;407;48.884;9.126;2023-07-08T15:23:10;34.50;99.90
843;DHT22;407;48.884;9.126;2023-07-08T15:25:36;34.30;99.90
843;DHT22;407;48.884;9.126;2023-07-08T15:28:03;34.30;99.90
843;DHT22;407;48.884;9.126;2023-07-08T15:30:30;34.20;99.90
843;DHT22;407;48.884;9.126;2023-07-08T15:32:56;34.20;99.90
843;DHT22;407;48.884;9.126;2023-07-08T15:35:27;34.10;99.90
843;DHT22;407;48.884;9.126;2023-07-08T15:37:58;34.20;99.90
843;DHT22;407;48.884;9.126;2023-07-08T15:40:25;34.30;99.90
843;DHT22;407;48.884;9.126;2023-07-08T15:42:56;34.40;99.90
843;DHT22;407;48.884;9.126;2023-07-08T15:45:28;34.40;99.90
843;DHT22;407;48.884;9.126;2023-07-08T15:47:54;34.60;99.90
843;DHT22;407;48.884;9.126;2023-07-08T15:50:24;34.70;99.90
843;DHT22;407;48.884;9.126;2023-07-08T15:52:51;34.70;99.90
843;DHT22;407;48.884;9.126;2023-07-08T15:55:29;34.50;99.90
843;DHT22;407;48.884;9.126;2023-07-08T15:57:59;34.50;99.90
843;DHT22;407;48.884;9.126;2023-07-08T16:00:28;34.60;99.90
843;DHT22;407;48.884;9.126;2023-07-08T16:02:57;34.60;99.90
843;DHT22;407;48.884;9.126;2023-07-08T16:05:24;34.60;99.90
843;DHT22;407;48.884;9.126;2023-07-08T16:07:51;34.50;99.90
843;DHT22;407;48.884;9.126;2023-07-08T16:10:18;34.50;99.90
843;DHT22;407;48.884;9.126;2023-07-08T16:12:45;34.60;99.90
843;DHT22;407;48.884;9.126;2023-07-08T16:15:16;34.50;99.90
843;DHT22;407;48.884;9.126;2023-07-08T16:17:42;34.30;99.90
843;DHT22;407;48.884;9.126;2023-07-08T16:20:15;34.10;99.90
843;DHT22;407;48.884;9.126;2023-07-08T16:22:41;34.10;99.90
843;DHT22;407;48.884;9.126;2023-07-08T16:25:08;34.20;99.90
843;DHT22;407;48.884;9.126;2023-07-08T16:27:39;34.20;99.90
843;DHT22;407;48.884;9.126;2023-07-08T16:30:05;34.00;99.90
843;DHT22;407;48.884;9.126;2023-07-08T16:32:31;33.90;99.90
843;DHT22;407;48.884;9.126;2023-07-08T16:34:57;33.90;99.90
843;DHT22;407;48.884;9.126;2023-07-08T16:37:22;33.90;99.90
843;DHT22;407;48.884;9.126;2023-07-08T16:39:48;33.90;99.90
843;DHT22;407;48.884;9.126;2023-07-08T16:42:15;33.90;99.90
843;DHT22;407;48.884;9.126;2023-07-08T16:44:41;33.90;99.90
843;DHT22;407;48.884;9.126;2023-07-08T16:47:08;33.80;99.90
843;DHT22;407;48.884;9.126;2023-07-08T16:49:33;33.90;99.90
843;DHT22;407;48.884;9.126;2023-07-08T16:51:59;33.80;99.90
843;DHT22;407;48.884;9.126;2023-07-08T16:54:24;33.70;99.90
843;DHT22;407;48.884;9.126;2023-07-08T16:56:50;33.80;99.90
843;DHT22;407;48.884;9.126;2023-07-08T16:59:16;33.90;99.90
843;DHT22;407;48.884;9.126;2023-07-08T17:01:42;33.80;99.90
843;DHT22;407;48.884;9.126;2023-07-08T17:04:12;33.80;99.90
843;DHT22;407;48.884;9.126;2023-07-08T17:06:38;33.80;99.90
843;DHT22;407;48.884;9.126;2023-07-08T17:09:04;33.80;99.90
843;DHT22;407;48.884;9.126;2023-07-08T17:11:32;33.80;99.90
843;DHT22;407;48.884;9.126;2023-07-08T17:13:58;33.80;99.90
843;DHT22;407;48.884;9.126;2023-07-08T17:16:30;33.80;99.90
843;DHT22;407;48.884;9.126;2023-07-08T17:18:56;33.80;99.90
843;DHT22;407;48.884;9.126;2023-07-08T17:21:22;33.90;99.90
843;DHT22;407;48.884;9.126;2023-07-08T17:23:48;33.80;99.90
843;DHT22;407;48.884;9.126;2023-07-08T17:26:14;33.90;99.90
843;DHT22;407;48.884;9.126;2023-07-08T17:28:40;33.80;99.90
843;DHT22;407;48.884;9.126;2023-07-08T17:31:06;33.80;99.90
843;DHT22;407;48.884;9.126;2023-07-08T17:33:33;33.70;99.90
843;DHT22;407;48.884;9.126;2023-07-08T17:36:04;33.50;99.90
843;DHT22;407;48.884;9.126;2023-07-08T17:41:13;33.40;99.90
843;DHT22;407;48.884;9.126;2023-07-08T17:43:39;33.40;99.90
843;DHT22;407;48.884;9.126;2023-07-08T17:46:09;33.50;99.90